Time;durP1;ratioP1;P1;durP2;ratioP2;P2;SDS_P1;SDS_P2;PMS_P1;PMS_P2;Temp;Humidity;BMP_temperature;BMP_pressure;BME280_temperature;BME280_humidity;BME280_pressure;Samples;Min_cycle;Max_cycle;Signal;HPM_P1;HPM_P2
2022/03/14 00:00:11;;;;;;;1.70;0.73;;;;;;;-142.75;100.00;77509.38;5053260;28;20030;-67
2022/03/14 00:02:37;;;;;;;1.13;0.73;;;;;;;-142.75;100.00;77501.50;5053241;28;20033;-67
2022/03/14 00:05:06;;;;;;;2.10;0.65;;;;;;;-142.75;100.00;77503.47;5053187;28;20044;-67
2022/03/14 00:07:35;;;;;;;1.10;0.60;;;;;;;-142.75;100.00;77507.41;5053352;28;20399;-68
2022/03/14 00:10:03;;;;;;;1.33;0.68;;;;;;;-142.75;100.00;77507.41;5038124;28;20039;-67
2022/03/14 00:12:30;;;;;;;1.73;0.68;;;;;;;-142.75;100.00;77511.34;5032361;28;20446;-67
2022/03/14 00:14:56;;;;;;;0.68;0.40;;;;;;;-142.75;100.00;77517.25;5033563;28;20112;-67
2022/03/14 00:17:25;;;;;;;1.00;0.60;;;;;;;-142.75;100.00;77513.31;5033360;28;20021;-67
2022/03/14 00:19:51;;;;;;;1.20;0.68;;;;;;;-142.75;100.00;77513.31;5031780;28;20033;-67
2022/03/14 00:22:18;;;;;;;2.92;0.70;;;;;;;-142.75;100.00;77511.34;5033214;28;20045;-67
2022/03/14 00:24:43;;;;;;;2.22;0.77;;;;;;;-142.75;100.00;77515.28;5032998;28;20033;-67
2022/03/14 00:27:09;;;;;;;2.58;0.70;;;;;;;-142.75;100.00;77527.09;5033035;28;20443;-67
2022/03/14 00:29:34;;;;;;;0.95;0.50;;;;;;;-142.75;100.00;77523.16;5032718;28;20025;-66
2022/03/14 00:32:00;;;;;;;1.25;0.40;;;;;;;-142.75;100.00;77534.97;5032974;28;20021;-67
2022/03/14 00:34:26;;;;;;;1.80;0.77;;;;;;;-142.75;100.00;77529.06;5032797;28;20022;-67
2022/03/14 00:36:51;;;;;;;0.73;0.43;;;;;;;-142.75;100.00;77534.97;5032917;28;20033;-67
2022/03/14 00:39:17;;;;;;;0.50;0.30;;;;;;;-142.75;100.00;77534.97;5032440;28;20025;-67
2022/03/14 00:41:43;;;;;;;0.95;0.63;;;;;;;-142.75;100.00;77540.88;5032727;28;20057;-67
2022/03/14 00:44:09;;;;;;;0.82;0.57;;;;;;;-142.75;100.00;77548.75;5032841;28;20498;-67
2022/03/14 00:46:37;;;;;;;0.60;0.45;;;;;;;-142.75;100.00;77544.81;5033041;28;20041;-66
2022/03/14 00:49:02;;;;;;;1.90;0.77;;;;;;;-142.75;100.00;77558.59;5033494;28;20075;-66
2022/03/14 00:51:28;;;;;;;2.90;0.80;;;;;;;-142.75;100.00;77548.75;5033590;28;20487;-66
2022/03/14 00:53:53;;;;;;;1.40;0.63;;;;;;;-142.75;100.00;77546.78;5033357;28;20502;-67
2022/03/14 00:56:19;;;;;;;1.17;0.60;;;;;;;-142.75;100.00;77554.66;5032314;28;20268;-66
2022/03/14 00:58:45;;;;;;;1.20;0.60;;;;;;;-142.75;100.00;77558.59;5032155;28;20056;-67
2022/03/14 01:01:10;;;;;;;0.75;0.47;;;;;;;-142.75;100.00;77562.53;5032395;28;20079;-67
2022/03/14 01:03:35;;;;;;;1.25;0.60;;;;;;;-142.75;100.00;77568.44;5031281;28;20025;-67
2022/03/14 01:06:01;;;;;;;1.13;0.60;;;;;;;-142.75;100.00;77570.41;5033007;28;20026;-67
2022/03/14 01:08:26;;;;;;;2.15;0.68;;;;;;;-142.75;100.00;77570.41;5032835;28;21366;-67
2022/03/14 01:10:51;;;;;;;0.98;0.65;;;;;;;-142.75;100.00;77590.09;5032594;28;20630;-67
2022/03/14 01:13:17;;;;;;;1.33;0.65;;;;;;;-142.75;100.00;77588.13;5031316;28;20030;-67
2022/03/14 01:15:42;;;;;;;1.60;0.70;;;;;;;-142.75;100.00;77592.06;5032642;28;20030;-66
2022/03/14 01:18:07;;;;;;;1.40;0.93;;;;;;;-142.75;100.00;77592.06;5032218;28;20029;-66
2022/03/14 01:20:33;;;;;;;1.90;0.77;;;;;;;-142.75;100.00;77590.09;5030900;28;20344;-67
2022/03/14 01:22:59;;;;;;;1.48;0.82;;;;;;;-142.75;100.00;77594.03;5032288;28;20518;-67
2022/03/14 01:25:24;;;;;;;2.38;0.73;;;;;;;-142.75;100.00;77592.06;5032099;28;20506;-67
2022/03/14 01:27:51;;;;;;;1.80;0.77;;;;;;;-142.75;100.00;77594.03;5030629;28;20078;-66
2022/03/14 01:30:18;;;;;;;1.67;0.70;;;;;;;-142.75;100.00;77596.00;5032016;28;20040;-67
2022/03/14 01:32:44;;;;;;;2.35;1.10;;;;;;;-142.75;100.00;77601.91;5045413;28;20442;-67
2022/03/14 01:35:09;;;;;;;1.97;1.10;;;;;;;-142.75;100.00;77605.84;5051745;28;20041;-67
2022/03/14 01:37:34;;;;;;;1.25;0.70;;;;;;;-142.75;100.00;77607.81;5051695;28;20353;-67
2022/03/14 01:39:59;;;;;;;1.05;0.60;;;;;;;-142.75;100.00;77609.78;5050121;28;20039;-67
2022/03/14 01:42:25;;;;;;;2.28;0.90;;;;;;;-142.75;100.00;77621.59;5051450;28;20107;-67
2022/03/14 01:44:50;;;;;;;1.67;0.57;;;;;;;-142.75;100.00;77623.56;5051473;28;20035;-67
2022/03/14 01:47:16;;;;;;;1.38;0.75;;;;;;;-142.75;100.00;77655.06;5051401;28;20028;-66
2022/03/14 01:49:43;;;;;;;3.15;1.15;;;;;;;-142.75;100.00;77684.59;5049948;28;20024;-67
2022/03/14 01:52:09;;;;;;;2.17;0.98;;;;;;;-142.75;100.00;77698.38;5051449;28;20036;-66
2022/03/14 01:54:34;;;;;;;1.23;0.80;;;;;;;-142.75;100.00;77720.03;5051535;28;20020;-66
2022/03/14 01:57:00;;;;;;;1.00;0.60;;;;;;;-142.75;100.00;77725.97;5051518;28;20025;-67
2022/03/14 01:59:29;;;;;;;1.63;0.90;;;;;;;-142.75;100.00;77741.72;5051060;28;20020;-66
2022/03/14 02:01:56;;;;;;;1.95;1.00;;;;;;;-142.75;100.00;77741.72;5051153;28;20405;-67
2022/03/14 02:04:21;;;;;;;2.38;0.90;;;;;;;-142.75;100.00;77741.72;5051085;28;20113;-67
2022/03/14 02:06:47;;;;;;;2.40;1.05;;;;;;;-142.75;100.00;77757.47;5050124;28;20092;-67
2022/03/14 02:09:12;;;;;;;3.05;1.67;;;;;;;-142.75;100.00;77753.53;5050970;28;20025;-67
2022/03/14 02:11:37;;;;;;;2.55;1.10;;;;;;;-142.75;100.00;77761.41;5051126;28;20017;-67
2022/03/14 02:14:06;;;;;;;1.95;1.45;;;;;;;-142.75;100.00;77771.25;5050962;28;20021;-67
2022/03/14 02:16:31;;;;;;;2.90;1.33;;;;;;;-142.75;100.00;77763.38;5050961;28;20116;-66
2022/03/14 02:18:56;;;;;;;2.33;1.10;;;;;;;-142.75;100.00;77779.13;5050778;28;20127;-67
2022/03/14 02:21:22;;;;;;;2.45;1.30;;;;;;;-142.75;100.00;77779.13;5050890;28;20033;-67
2022/03/14 02:23:47;;;;;;;2.05;1.05;;;;;;;-142.75;100.00;77783.06;5049817;28;20029;-66
2022/03/14 02:26:12;;;;;;;3.00;1.40;;;;;;;-142.75;100.00;77781.09;5049699;28;20025;-67
2022/03/14 02:28:38;;;;;;;1.37;0.83;;;;;;;-142.75;100.00;77783.06;5050874;28;20779;-67
2022/03/14 02:31:03;;;;;;;2.22;1.13;;;;;;;-142.75;100.00;77787.00;5049572;28;20369;-67
2022/03/14 02:33:29;;;;;;;3.33;1.27;;;;;;;-142.75;100.00;77787.00;5050673;28;20020;-66
2022/03/14 02:35:55;;;;;;;2.50;1.38;;;;;;;-142.75;100.00;77787.00;5050899;28;20032;-67
2022/03/14 02:38:20;;;;;;;2.15;1.30;;;;;;;-142.75;100.00;77790.94;5050484;28;20036;-67
2022/03/14 02:40:47;;;;;;;3.15;1.40;;;;;;;-142.75;100.00;77800.78;5051098;28;20397;-66
2022/03/14 02:43:15;;;;;;;2.60;1.73;;;;;;;-142.75;100.00;77796.84;5050770;28;20025;-67
2022/03/14 02:45:43;;;;;;;2.70;1.43;;;;;;;-142.75;100.00;77800.78;5050707;28;20302;-66
2022/03/14 02:48:08;;;;;;;2.73;1.40;;;;;;;-142.75;100.00;77810.63;5050511;28;20031;-66
2022/03/14 02:50:35;;;;;;;2.83;1.70;;;;;;;-142.75;100.00;77798.81;5049400;28;20123;-66
2022/03/14 02:53:00;;;;;;;;;;;;;;;-142.75;100.00;77812.59;5051097;28;20082;-66
2022/03/14 02:55:25;;;;;;;2.90;1.20;;;;;;;-142.75;100.00;77814.56;5050768;28;19924;-67
2022/03/14 02:57:51;;;;;;;3.45;1.60;;;;;;;-142.75;100.00;77814.56;5050559;28;20375;-67
2022/03/14 03:00:16;;;;;;;2.60;1.40;;;;;;;-142.75;100.00;77814.56;5050733;28;20028;-67
2022/03/14 03:02:42;;;;;;;2.08;1.35;;;;;;;-142.75;100.00;77822.44;5050629;28;20463;-67
2022/03/14 03:05:08;;;;;;;2.88;1.73;;;;;;;-142.75;100.00;77818.50;5050430;28;20047;-66
2022/03/14 03:07:35;;;;;;;2.80;1.40;;;;;;;-142.75;100.00;77824.41;5050619;28;20092;-67
2022/03/14 03:10:03;;;;;;;2.97;1.63;;;;;;;-142.75;100.00;77824.41;5050420;28;20040;-67
2022/03/14 03:12:28;;;;;;;3.70;1.70;;;;;;;-142.75;100.00;77836.22;5050475;28;20056;-67
2022/03/14 03:14:54;;;;;;;3.58;2.00;;;;;;;-142.75;100.00;77830.31;5050425;28;21411;-67
2022/03/14 03:17:20;;;;;;;2.10;1.20;;;;;;;-142.75;100.00;77842.13;5050454;28;20021;-67
2022/03/14 03:19:45;;;;;;;2.58;1.45;;;;;;;-142.75;100.00;77846.06;5054055;28;20108;-66
2022/03/14 03:22:11;;;;;;;3.77;1.53;;;;;;;-142.75;100.00;77853.94;5054315;28;20103;-67
2022/03/14 03:24:36;;;;;;;3.25;1.60;;;;;;;-142.75;100.00;77865.75;5054184;28;20275;-67
2022/03/14 03:27:01;;;;;;;3.27;1.73;;;;;;;-142.75;100.00;77863.78;5054292;28;20383;-66
2022/03/14 03:29:27;;;;;;;3.58;1.90;;;;;;;-142.75;100.00;77877.56;5053783;28;20275;-67
2022/03/14 03:31:52;;;;;;;3.97;2.38;;;;;;;-142.75;100.00;77885.44;5054165;28;20020;-67
2022/03/14 03:34:17;;;;;;;3.78;1.98;;;;;;;-142.75;100.00;77893.31;5054283;28;20394;-67
2022/03/14 03:36:43;;;;;;;5.07;2.28;;;;;;;-142.75;100.00;77899.22;5054055;28;20402;-67
2022/03/14 03:39:08;;;;;;;5.90;1.63;;;;;;;-142.75;100.00;77901.19;5053825;28;20113;-67
2022/03/14 03:41:33;;;;;;;4.38;2.72;;;;;;;-142.75;100.00;77909.06;5053939;28;20021;-66
2022/03/14 03:43:59;;;;;;;3.80;1.90;;;;;;;-142.75;100.00;77913.03;5053805;28;20036;-67
2022/03/14 03:46:25;;;;;;;3.60;2.20;;;;;;;-142.75;100.00;77924.84;5053906;28;20460;-66
2022/03/14 03:48:50;;;;;;;4.05;2.50;;;;;;;-142.75;100.00;77934.69;5052132;28;20032;-67
2022/03/14 03:51:15;;;;;;;4.43;2.05;;;;;;;-142.75;100.00;77940.59;5053818;28;20032;-66
2022/03/14 03:53:40;;;;;;;4.13;2.40;;;;;;;-142.75;100.00;77950.44;5054099;28;20029;-66
2022/03/14 03:56:06;;;;;;;3.67;2.47;;;;;;;-142.75;100.00;77948.47;5053462;28;20371;-67
2022/03/14 03:58:31;;;;;;;5.85;3.08;;;;;;;-142.75;100.00;77956.34;5053564;28;20020;-67
2022/03/14 04:00:56;;;;;;;5.60;2.90;;;;;;;-142.75;100.00;77960.28;5053467;28;20475;-67
2022/03/14 04:03:22;;;;;;;6.38;2.65;;;;;;;-142.75;100.00;77956.34;5053583;28;20033;-67
2022/03/14 04:05:49;;;;;;;4.85;2.80;;;;;;;-142.75;100.00;77964.22;5059226;22;20045;-67
2022/03/14 04:08:14;;;;;;;8.97;3.30;;;;;;;-142.75;100.00;77974.06;5043766;28;20029;-67
2022/03/14 04:10:41;;;;;;;5.03;3.05;;;;;;;-142.75;100.00;77983.91;5048031;28;20025;-68
2022/03/14 04:13:06;;;;;;;3.73;2.27;;;;;;;-142.75;100.00;77976.03;5048428;28;20029;-67
2022/03/14 04:15:51;;;;;;;5.50;2.45;;;;;;;-142.75;100.00;77976.03;5052548;28;20036;-67
2022/03/14 04:18:18;;;;;;;3.92;2.17;;;;;;;-142.75;100.00;77995.72;5052788;28;20017;-68
2022/03/14 04:20:44;;;;;;;6.85;3.03;;;;;;;-142.75;100.00;78001.63;5041990;28;20033;-68
2022/03/14 04:23:09;;;;;;;4.30;2.50;;;;;;;-142.75;100.00;78007.53;5042256;28;20369;-67
2022/03/14 04:25:35;;;;;;;4.70;2.57;;;;;;;-142.75;100.00;78005.56;5052909;28;20119;-68
2022/03/14 04:28:00;;;;;;;4.80;2.83;;;;;;;-142.75;100.00;78009.50;5052302;28;20267;-69
2022/03/14 04:30:25;;;;;;;5.07;3.03;;;;;;;-142.75;100.00;78015.41;5031960;28;20025;-67
2022/03/14 04:32:50;;;;;;;4.13;2.60;;;;;;;-142.75;100.00;78013.44;5038574;28;20264;-68
2022/03/14 04:35:16;;;;;;;4.38;2.42;;;;;;;-142.75;100.00;78023.28;5043781;28;20282;-67
2022/03/14 04:37:41;;;;;;;4.82;2.97;;;;;;;-142.75;100.00;78031.16;5049458;28;20063;-67
2022/03/14 04:40:08;;;;;;;7.45;3.67;;;;;;;-142.75;100.00;78035.09;5033553;28;20032;-67
2022/03/14 04:42:34;;;;;;;5.10;2.72;;;;;;;-142.75;100.00;78044.94;5032685;28;20036;-67
2022/03/14 04:44:59;;;;;;;4.73;2.97;;;;;;;-142.75;100.00;78042.97;5032651;28;20104;-67
2022/03/14 04:47:26;;;;;;;6.60;2.90;;;;;;;-142.75;100.00;78052.81;5035191;28;20460;-67
2022/03/14 04:49:52;;;;;;;6.10;2.88;;;;;;;-142.75;100.00;78048.88;5047660;28;20402;-67
2022/03/14 04:52:17;;;;;;;;;;;;;;;-142.75;100.00;78052.81;5050912;28;20425;-67
2022/03/14 04:54:44;;;;;;;6.97;2.55;;;;;;;-142.75;100.00;78058.72;5042199;28;19978;-68
2022/03/14 04:57:09;;;;;;;4.63;2.10;;;;;;;-142.75;100.00;78070.56;5050738;28;20384;-67
2022/03/14 04:59:35;;;;;;;4.00;2.50;;;;;;;-142.75;100.00;78098.13;5050253;28;20021;-68
2022/03/14 05:02:01;;;;;;;4.78;2.65;;;;;;;-142.75;100.00;78094.19;5040421;28;20024;-68
2022/03/14 05:04:26;;;;;;;4.68;2.15;;;;;;;-142.75;100.00;78098.13;5051953;28;20040;-67
2022/03/14 05:06:51;;;;;;;4.53;2.97;;;;;;;-142.75;100.00;78113.88;5032373;28;20026;-67
2022/03/14 05:09:16;;;;;;;4.53;2.10;;;;;;;-142.75;100.00;78127.66;5032026;28;20017;-68
2022/03/14 05:11:42;;;;;;;4.57;2.33;;;;;;;-142.75;100.00;78133.56;5030957;28;20156;-68
2022/03/14 05:14:10;;;;;;;4.23;2.60;;;;;;;-142.75;100.00;78133.56;5038850;28;20791;-67
2022/03/14 05:16:36;;;;;;;4.60;2.37;;;;;;;-142.75;100.00;78137.50;5042372;28;20272;-70
2022/03/14 05:19:02;;;;;;;3.25;1.83;;;;;;;-142.75;100.00;78141.44;5047567;28;20033;-68
2022/03/14 05:21:27;;;;;;;4.80;2.35;;;;;;;-142.75;100.00;78143.41;5045684;28;20471;-67
2022/03/14 05:23:54;;;;;;;5.07;2.35;;;;;;;-142.75;100.00;78145.38;5047236;28;20052;-67
2022/03/14 05:26:19;;;;;;;;;;;;;;;-142.75;100.00;78151.28;5052325;28;20032;-68
2022/03/14 05:28:44;;;;;;;3.53;1.93;;;;;;;-142.75;100.00;78153.25;5039225;28;19917;-69
2022/03/14 05:31:09;;;;;;;3.67;2.37;;;;;;;-142.75;100.00;78153.25;5042887;28;20669;-67
2022/03/14 05:33:35;;;;;;;4.80;2.60;;;;;;;-142.75;100.00;78159.16;5031961;28;20270;-68
2022/03/14 05:36:01;;;;;;;3.45;2.58;;;;;;;-142.75;100.00;78161.13;5038769;28;20116;-67
2022/03/14 05:38:26;;;;;;;3.75;2.05;;;;;;;-142.75;100.00;78178.84;5039521;28;20403;-66
2022/03/14 05:40:52;;;;;;;4.57;2.05;;;;;;;-142.75;100.00;78180.81;5030037;28;20022;-67
2022/03/14 05:43:17;;;;;;;5.63;2.60;;;;;;;-142.75;100.00;78176.88;5031164;28;20379;-69
2022/03/14 05:45:43;;;;;;;3.92;1.95;;;;;;;-142.75;100.00;78176.88;5048669;28;20495;-67
2022/03/14 05:48:08;;;;;;;3.95;2.30;;;;;;;-142.75;100.00;78176.88;5051107;28;20029;-67
2022/03/14 05:50:34;;;;;;;5.35;2.55;;;;;;;-142.75;100.00;78180.81;5042024;28;20449;-67
2022/03/14 05:52:59;;;;;;;3.78;2.30;;;;;;;-142.75;100.00;78192.66;5030180;28;20026;-67
2022/03/14 05:55:25;;;;;;;4.47;2.67;;;;;;;-142.75;100.00;78204.47;5047663;28;20028;-69
2022/03/14 05:57:50;;;;;;;4.90;2.63;;;;;;;-142.75;100.00;78204.47;5049684;28;20036;-73
2022/03/14 06:00:22;;;;;;;5.28;2.40;;;;;;;-142.75;100.00;78212.34;5051431;28;20501;-67
2022/03/14 06:02:48;;;;;;;3.67;2.33;;;;;;;-142.75;100.00;78220.22;5034028;28;20025;-67
2022/03/14 06:05:13;;;;;;;;;;;;;;;-142.75;100.00;78218.25;5049960;28;20111;-67
2022/03/14 06:07:40;;;;;;;3.90;2.13;;;;;;;-142.75;100.00;78218.25;5045879;28;19998;-67
2022/03/14 06:10:07;;;;;;;4.87;2.43;;;;;;;-142.75;100.00;78210.38;5050891;28;20023;-67
2022/03/14 06:12:32;;;;;;;6.33;2.63;;;;;;;-142.75;100.00;78208.41;5036414;28;20045;-66
2022/03/14 06:14:59;;;;;;;4.28;2.63;;;;;;;-142.75;100.00;78214.31;5031083;28;20107;-69
2022/03/14 06:17:25;;;;;;;5.85;2.67;;;;;;;-142.75;100.00;78212.34;5032003;28;20036;-68
2022/03/14 06:19:51;;;;;;;4.78;2.65;;;;;;;-142.75;100.00;78212.34;5030637;28;20025;-69
2022/03/14 06:22:21;;;;;;;4.38;2.30;;;;;;;-142.75;100.00;78216.28;5029668;28;20044;-70
2022/03/14 06:24:47;;;;;;;3.27;2.13;;;;;;;-142.75;100.00;78226.13;5030934;28;20049;-68
2022/03/14 06:27:14;;;;;;;4.73;2.50;;;;;;;-142.75;100.00;78226.13;5030744;28;20104;-70
2022/03/14 06:29:39;;;;;;;3.70;2.33;;;;;;;-142.75;100.00;78232.03;5030619;28;20119;-68
2022/03/14 06:32:05;;;;;;;3.97;2.30;;;;;;;-142.75;100.00;78232.03;5029468;28;20105;-71
2022/03/14 06:34:31;;;;;;;4.05;2.47;;;;;;;-142.75;100.00;78228.09;5030732;28;20272;-68
2022/03/14 06:36:56;;;;;;;4.82;2.50;;;;;;;-142.75;100.00;78228.09;5030872;28;20098;-68
2022/03/14 06:39:21;;;;;;;5.47;2.33;;;;;;;-142.75;100.00;78230.06;5029224;28;20487;-70
2022/03/14 06:41:48;;;;;;;3.90;2.47;;;;;;;-142.75;100.00;78235.97;5030640;28;20030;-68
2022/03/14 06:44:14;;;;;;;4.03;2.55;;;;;;;-142.75;100.00;78239.91;5030557;28;20026;-68
2022/03/14 06:46:39;;;;;;;4.35;2.13;;;;;;;-142.75;100.00;78239.91;5030765;28;20100;-68
2022/03/14 06:49:05;;;;;;;3.65;2.13;;;;;;;-142.75;100.00;78243.84;5029103;28;20160;-68
2022/03/14 06:51:30;;;;;;;4.63;2.25;;;;;;;-142.75;100.00;78255.66;5030704;28;20083;-71
2022/03/14 06:53:55;;;;;;;4.83;2.57;;;;;;;-142.75;100.00;78255.66;5033173;28;20021;-67
2022/03/14 06:56:21;;;;;;;5.90;2.97;;;;;;;-142.75;100.00;78257.63;5033513;28;20286;-71
2022/03/14 06:58:46;;;;;;;9.40;3.08;;;;;;;-142.75;100.00;78261.56;5034657;28;20708;-71
2022/03/14 07:01:12;;;;;;;5.03;2.58;;;;;;;-142.75;100.00;78259.59;5035024;28;20021;-68
2022/03/14 07:03:38;;;;;;;6.13;2.75;;;;;;;-142.75;100.00;78259.59;5034649;28;20402;-70
2022/03/14 07:06:03;;;;;;;5.93;3.15;;;;;;;-142.75;100.00;78259.59;5033189;28;20049;-71
2022/03/14 07:08:28;;;;;;;5.72;2.83;;;;;;;-142.75;100.00;78261.56;5034314;28;20661;-68
2022/03/14 07:10:54;;;;;;;7.03;3.87;;;;;;;-142.75;100.00;78263.53;5037451;28;20481;-68
2022/03/14 07:13:20;;;;;;;4.55;2.17;;;;;;;-142.75;100.00;78267.47;5035481;28;20287;-67
2022/03/14 07:15:45;;;;;;;6.38;3.22;;;;;;;-142.75;100.00;78265.50;5034444;28;20057;-66
2022/03/14 07:18:11;;;;;;;5.15;2.53;;;;;;;-142.75;100.00;78261.56;5034043;28;20033;-66
2022/03/14 07:20:36;;;;;;;6.43;2.90;;;;;;;-142.75;100.00;78263.53;5034299;28;20064;-72
2022/03/14 07:23:03;;;;;;;5.15;3.13;;;;;;;-142.75;100.00;78259.59;5032022;28;20042;-66
2022/03/14 07:25:31;;;;;;;6.47;3.42;;;;;;;-142.75;100.00;78259.59;5033302;28;20112;-68
2022/03/14 07:28:00;;;;;;;6.77;2.93;;;;;;;-142.75;100.00;78253.69;5032851;28;20029;-68
2022/03/14 07:30:26;;;;;;;5.40;3.00;;;;;;;-142.75;100.00;78243.84;5033227;28;20032;-68
2022/03/14 07:32:52;;;;;;;4.85;2.40;;;;;;;-142.75;100.00;78245.81;5031769;28;21384;-68
2022/03/14 07:35:17;;;;;;;;;;;;;;;-142.75;100.00;78249.75;5032304;28;20445;-68
2022/03/14 07:37:44;;;;;;;4.07;2.20;;;;;;;-142.75;100.00;78247.78;5031484;28;19920;-66
2022/03/14 07:40:11;;;;;;;5.75;3.03;;;;;;;-142.75;100.00;78243.84;5031574;28;20025;-67
2022/03/14 07:42:44;;;;;;;7.80;3.70;;;;;;;-142.75;100.00;78243.84;5031651;28;20100;-69
2022/03/14 07:45:12;;;;;;;6.18;3.03;;;;;;;-142.75;100.00;78247.78;5051214;28;20112;-68
2022/03/14 07:47:38;;;;;;;7.07;3.33;;;;;;;-142.75;100.00;78243.84;5037835;28;20448;-68
2022/03/14 07:50:07;;;;;;;6.63;3.35;;;;;;;-142.75;100.00;78239.91;5031235;28;20029;-68
2022/03/14 07:52:33;;;;;;;5.10;2.93;;;;;;;-142.75;100.00;78243.84;5032466;28;20018;-68
2022/03/14 07:54:59;;;;;;;8.40;3.90;;;;;;;-142.75;100.00;78245.81;5031366;28;20025;-69
2022/03/14 07:57:24;;;;;;;8.02;2.67;;;;;;;-142.75;100.00;78263.53;5032882;28;20418;-65
2022/03/14 07:59:49;;;;;;;7.63;3.25;;;;;;;-142.75;100.00;78267.47;5032379;28;20033;-67
2022/03/14 08:02:15;;;;;;;4.13;2.75;;;;;;;-142.75;100.00;78265.50;5032523;28;20030;-67
2022/03/14 08:04:40;;;;;;;6.50;3.03;;;;;;;-142.75;100.00;78281.25;5032365;28;20102;-67
2022/03/14 08:07:06;;;;;;;5.43;3.08;;;;;;;-142.75;100.00;78273.38;5032045;28;20368;-67
2022/03/14 08:09:32;;;;;;;4.90;3.58;;;;;;;-142.75;100.00;78275.34;5032049;28;20025;-67
2022/03/14 08:11:59;;;;;;;3.83;2.50;;;;;;;-142.75;100.00;78275.34;5030969;28;20049;-67
2022/03/14 08:14:24;;;;;;;5.68;3.45;;;;;;;-142.75;100.00;78265.50;5034221;28;20055;-68
2022/03/14 08:16:49;;;;;;;6.40;2.77;;;;;;;-142.75;100.00;78265.50;5052388;28;20064;-67
2022/03/14 08:19:15;;;;;;;8.05;3.25;;;;;;;-142.75;100.00;78271.41;5051843;28;20279;-67
2022/03/14 08:21:40;;;;;;;7.32;2.90;;;;;;;-142.75;100.00;78273.38;5037093;28;20071;-67
2022/03/14 08:24:06;;;;;;;5.68;3.33;;;;;;;-142.75;100.00;78277.31;5030767;28;20032;-67
2022/03/14 08:26:33;;;;;;;4.38;2.28;;;;;;;-142.75;100.00;78291.09;5032134;28;20033;-67
2022/03/14 08:29:00;;;;;;;7.40;3.58;;;;;;;-142.75;100.00;78295.06;5031798;28;20029;-68
2022/03/14 08:31:25;;;;;;;5.47;2.85;;;;;;;-142.75;100.00;78287.16;5030519;28;20029;-68
2022/03/14 08:33:51;;;;;;;4.13;2.50;;;;;;;-142.75;100.00;78295.06;5032043;28;20041;-67
2022/03/14 08:36:20;;;;;;;9.55;2.25;;;;;;;-142.75;100.00;78297.00;5030700;28;20017;-67
2022/03/14 08:38:46;;;;;;;5.55;2.83;;;;;;;-142.75;100.00;78306.88;5041931;28;20036;-67
2022/03/14 08:41:15;;;;;;;5.67;3.43;;;;;;;-142.75;100.00;78299.00;5051762;28;20090;-68
2022/03/14 08:43:41;;;;;;;5.47;2.67;;;;;;;-142.75;100.00;78289.13;5050447;28;20033;-67
2022/03/14 08:46:06;;;;;;;3.78;2.30;;;;;;;-142.75;100.00;78289.13;5051815;28;20090;-68
2022/03/14 08:48:31;;;;;;;4.20;2.55;;;;;;;-142.75;100.00;78299.00;5051388;28;20055;-67
2022/03/14 08:50:57;;;;;;;5.07;2.90;;;;;;;-142.75;100.00;78295.06;5039138;28;20060;-70
2022/03/14 08:53:22;;;;;;;4.50;2.38;;;;;;;-142.75;100.00;78302.94;5031794;28;20029;-67
2022/03/14 08:55:47;;;;;;;5.65;2.60;;;;;;;-142.75;100.00;78295.06;5031652;28;20021;-68
2022/03/14 08:58:13;;;;;;;4.53;2.77;;;;;;;-142.75;100.00;78293.06;5029965;28;20037;-67
2022/03/14 09:00:39;;;;;;;6.10;2.90;;;;;;;-142.75;100.00;78293.06;5031770;28;20283;-68
2022/03/14 09:03:04;;;;;;;6.93;2.83;;;;;;;-142.75;100.00;78285.19;5031451;28;20479;-67
2022/03/14 09:05:29;;;;;;;3.40;1.95;;;;;;;-142.75;100.00;78283.22;5031286;28;20079;-70
2022/03/14 09:07:56;;;;;;;4.05;2.10;;;;;;;-142.75;100.00;78291.09;5029707;28;20116;-69
2022/03/14 09:10:21;;;;;;;3.75;2.55;;;;;;;-142.75;100.00;78277.31;5030029;28;20029;-67
2022/03/14 09:12:48;;;;;;;7.22;3.13;;;;;;;-142.75;100.00;78273.38;5030026;28;20507;-69
2022/03/14 09:15:13;;;;;;;5.82;2.50;;;;;;;-142.75;100.00;78267.47;5030777;28;20036;-69
2022/03/14 09:17:52;;;;;;;6.20;2.78;;;;;;;-142.75;100.00;78263.53;5031000;28;20030;-68
2022/03/14 09:20:19;;;;;;;7.05;2.53;;;;;;;-142.75;100.00;78269.44;5029812;28;20479;-68
2022/03/14 09:22:46;;;;;;;4.95;2.90;;;;;;;-142.75;100.00;78273.38;5030837;28;20034;-68
2022/03/14 09:25:15;;;;;;;5.05;2.50;;;;;;;-142.75;100.00;78273.38;5030853;28;20083;-69
2022/03/14 09:27:41;;;;;;;5.65;2.85;;;;;;;-142.75;100.00;78265.50;5030927;28;20124;-68
2022/03/14 09:30:08;;;;;;;6.00;2.30;;;;;;;-142.75;100.00;78269.44;5042391;28;20028;-67
2022/03/14 09:32:33;;;;;;;5.45;2.95;;;;;;;-142.75;100.00;78267.47;5050525;28;20395;-68
2022/03/14 09:34:59;;;;;;;5.40;2.78;;;;;;;-142.75;100.00;78275.34;5049264;28;20037;-68
2022/03/14 09:37:26;;;;;;;5.97;2.35;;;;;;;-142.75;100.00;78263.53;5050024;28;20031;-68
2022/03/14 09:39:52;;;;;;;4.47;2.22;;;;;;;-142.75;100.00;78275.34;5049027;28;20603;-68
2022/03/14 09:42:18;;;;;;;4.95;2.60;;;;;;;-142.75;100.00;78271.41;5049780;28;20068;-68
2022/03/14 09:44:46;;;;;;;7.00;2.93;;;;;;;-142.75;100.00;78273.38;5049864;28;20029;-68
2022/03/14 09:47:12;;;;;;;8.45;3.75;;;;;;;-142.75;100.00;78275.34;5049564;28;20394;-68
2022/03/14 09:49:42;;;;;;;4.45;2.88;;;;;;;-142.75;100.00;78265.50;5049845;28;20033;-68
2022/03/14 09:52:09;;;;;;;5.70;2.63;;;;;;;-142.75;100.00;78255.66;5049412;28;20167;-67
2022/03/14 09:54:35;;;;;;;4.45;2.67;;;;;;;-142.75;100.00;78245.81;5049626;28;20025;-68
2022/03/14 09:57:01;;;;;;;5.10;2.50;;;;;;;-142.75;100.00;78247.78;5048133;28;20032;-68
2022/03/14 09:59:27;;;;;;;4.35;2.15;;;;;;;-142.75;100.00;78239.91;5049343;28;20112;-68
2022/03/14 10:01:53;;;;;;;4.10;2.78;;;;;;;-142.75;100.00;78235.97;5048262;28;20024;-68
2022/03/14 10:04:18;;;;;;;4.18;2.00;;;;;;;-142.75;100.00;78218.25;5047956;28;20025;-68
2022/03/14 10:06:44;;;;;;;3.15;2.25;;;;;;;-142.75;100.00;78218.25;5049676;28;20031;-68
2022/03/14 10:09:09;;;;;;;7.50;2.60;;;;;;;-142.75;100.00;78200.53;5049166;28;20482;-68
2022/03/14 10:11:35;;;;;;;7.05;2.65;;;;;;;-142.75;100.00;78169.00;5049549;28;20483;-68
2022/03/14 10:14:02;;;;;;;4.65;2.47;;;;;;;-142.75;100.00;78153.25;5049220;28;20029;-69
2022/03/14 10:16:27;;;;;;;4.70;2.35;;;;;;;-142.75;100.00;78141.44;5049230;28;20031;-68
2022/03/14 10:18:58;;;;;;;6.43;2.67;;;;;;;-142.75;100.00;78153.25;5037814;28;20025;-70
2022/03/14 10:21:30;;;;;;;5.72;2.50;;;;;;;-142.75;100.00;78145.38;5029255;28;20100;-67
2022/03/14 10:23:59;;;;;;;11.93;2.47;;;;;;;-142.75;100.00;78145.38;5044638;28;20032;-70
2022/03/14 10:26:25;;;;;;;7.60;2.58;;;;;;;-142.75;100.00;78145.38;5047936;28;20510;-67
2022/03/14 10:28:55;;;;;;;4.47;2.63;;;;;;;-142.75;100.00;78165.06;5046903;28;20033;-68
2022/03/14 10:31:28;;;;;;;5.85;2.38;;;;;;;-142.75;100.00;78141.44;5047311;28;20478;-68
2022/03/14 10:34:04;;;;;;;4.88;2.03;;;;;;;-142.75;100.00;78153.25;5049115;28;20021;-68
2022/03/14 10:36:44;;;;;;;4.10;2.20;;;;;;;-142.75;100.00;78139.47;5049342;28;20025;-67
2022/03/14 10:39:27;;;;;;;4.82;2.55;;;;;;;-142.75;100.00;78127.66;5048717;28;20106;-68
2022/03/14 10:42:04;;;;;;;6.55;2.42;;;;;;;-142.75;100.00;78157.19;5048760;28;20025;-69
2022/03/14 10:44:30;;;;;;;5.00;2.55;;;;;;;-142.75;100.00;78151.28;5048778;28;20406;-68
2022/03/14 10:46:59;;;;;;;;;;;;;;;-142.75;100.00;78178.84;5049497;28;20037;-69
2022/03/14 10:49:30;;;;;;;3.35;1.65;;;;;;;-142.75;100.00;78188.72;5047572;28;20324;-68
2022/03/14 10:52:00;;;;;;;4.40;2.30;;;;;;;-142.75;100.00;78202.50;5047522;28;20099;-68
2022/03/14 10:54:26;;;;;;;5.20;2.30;;;;;;;-142.75;100.00;78184.78;5027484;28;20030;-69
2022/03/14 10:57:04;;;;;;;6.65;2.80;;;;;;;-142.75;100.00;78176.88;5029110;28;20171;-67
2022/03/14 10:59:37;;;;;;;5.57;2.53;;;;;;;-142.75;100.00;78159.16;5027452;28;20021;-68
2022/03/14 11:02:11;;;;;;;6.10;3.15;;;;;;;-142.75;100.00;78165.06;5028968;28;20021;-67
2022/03/14 11:04:47;;;;;;;4.88;2.80;;;;;;;-142.75;100.00;78143.41;5028696;28;20502;-68